createdAt,value
2023-01-04T00:01:21.111Z,5.47
2023-01-04T00:04:24.337Z,5.52
2023-01-04T00:07:25.719Z,5.60
2023-01-04T00:10:28.421Z,5.54
2023-01-04T00:16:51.987Z,5.33
2023-01-04T00:19:55.233Z,5.20
2023-01-04T00:22:57.669Z,5.21
2023-01-04T00:26:00.237Z,5.22
2023-01-04T00:29:03.457Z,5.23
2023-01-04T00:32:06.076Z,5.25
2023-01-04T00:35:08.860Z,5.25
2023-01-04T00:38:11.438Z,5.32
2023-01-04T00:41:34.452Z,5.28
2023-01-04T00:44:36.449Z,5.16
2023-01-04T00:47:39.121Z,5.20
2023-01-04T00:50:44.036Z,5.15
2023-01-04T00:53:46.605Z,5.11
2023-01-04T00:56:49.179Z,5.26
2023-01-04T00:59:50.481Z,5.37
2023-01-04T01:06:13.556Z,5.69
2023-01-04T01:09:16.441Z,5.69
2023-01-04T01:12:18.997Z,5.72
2023-01-04T01:15:20.333Z,5.79
2023-01-04T01:18:22.933Z,5.97
2023-01-04T01:21:27.595Z,5.97
2023-01-04T01:27:49.811Z,5.90
2023-01-04T01:30:52.383Z,5.82
2023-01-04T01:33:55.421Z,5.75
2023-01-04T01:36:58.714Z,5.84
2023-01-04T01:40:00.002Z,5.71
2023-01-04T01:43:02.544Z,5.84
2023-01-04T01:46:05.534Z,5.67
2023-01-04T01:49:14.386Z,5.82
2023-01-04T01:52:22.718Z,5.66
2023-01-04T01:55:24.287Z,5.77
2023-01-04T01:58:32.291Z,5.71
2023-01-04T02:01:33.731Z,5.69
2023-01-04T02:04:38.510Z,5.56
2023-01-04T02:07:42.114Z,5.79
2023-01-04T02:10:44.657Z,5.77
2023-01-04T02:14:04.669Z,5.64
2023-01-04T02:17:18.018Z,5.63
2023-01-04T02:20:36.349Z,5.58
2023-01-04T02:24:08.279Z,5.58
2023-01-04T02:27:31.706Z,5.73
2023-01-04T02:30:58.712Z,5.84
2023-01-04T02:34:09.263Z,5.91
2023-01-04T02:37:17.985Z,5.85
2023-01-04T02:40:27.495Z,5.71
2023-01-04T02:43:57.170Z,5.71
2023-01-04T02:47:03.671Z,5.63
2023-01-04T02:50:31.546Z,5.80
2023-01-04T02:53:38.343Z,5.89
2023-01-04T02:56:53.009Z,5.76
2023-01-04T03:00:13.907Z,5.57
2023-01-04T03:03:42.983Z,5.69
2023-01-04T03:06:52.272Z,5.75
2023-01-04T03:10:01.526Z,5.70
2023-01-04T03:13:07.684Z,5.68
2023-01-04T03:16:14.820Z,5.80
2023-01-04T03:19:46.634Z,5.61
2023-01-04T03:23:14.181Z,5.63
2023-01-04T03:26:48.793Z,5.57
2023-01-04T03:30:15.069Z,5.71
2023-01-04T03:33:35.842Z,5.87
2023-01-04T03:36:59.487Z,5.90
2023-01-04T03:40:35.073Z,5.67
2023-01-04T03:44:02.305Z,5.77
2023-01-04T03:47:26.320Z,5.76
2023-01-04T03:50:32.929Z,5.69
2023-01-04T03:53:41.267Z,5.71
2023-01-04T03:56:46.345Z,5.61
2023-01-04T03:59:52.960Z,5.49
2023-01-04T04:03:06.354Z,5.72
2023-01-04T04:09:47.902Z,5.72
2023-01-04T04:12:51.220Z,5.58
2023-01-04T04:15:54.539Z,5.69
2023-01-04T04:18:57.591Z,5.62
2023-01-04T04:22:00.252Z,5.72
2023-01-04T04:25:01.702Z,5.62
2023-01-04T04:28:06.602Z,5.61
2023-01-04T04:31:08.320Z,5.66
2023-01-04T04:34:11.325Z,5.67
2023-01-04T04:37:13.941Z,5.79
2023-01-04T04:40:32.698Z,5.77
2023-01-04T04:43:35.090Z,5.83
2023-01-04T04:46:37.051Z,5.80
2023-01-04T04:49:39.658Z,5.65
2023-01-04T04:52:40.947Z,5.79
2023-01-04T04:55:42.241Z,5.83
2023-01-04T04:58:45.447Z,5.86
2023-01-04T05:01:48.183Z,5.81
2023-01-04T05:04:49.764Z,5.90
2023-01-04T05:07:52.300Z,5.78
2023-01-04T05:10:53.661Z,5.70
2023-01-04T05:13:56.635Z,5.69
2023-01-04T05:16:59.348Z,5.85
2023-01-04T05:20:00.764Z,5.72
2023-01-04T05:23:03.703Z,5.95
2023-01-04T05:26:05.370Z,5.91
2023-01-04T05:29:28.664Z,5.87
2023-01-04T05:32:31.006Z,6.13
2023-01-04T05:35:32.419Z,5.97
2023-01-04T05:38:35.551Z,6.04
2023-01-04T05:41:55.578Z,5.99
2023-01-04T05:44:58.526Z,6.29
2023-01-04T05:47:59.979Z,6.17
2023-01-04T05:51:01.259Z,6.03
2023-01-04T05:54:03.817Z,6.22
2023-01-04T05:57:05.239Z,6.06
2023-01-04T06:00:09.460Z,6.15
2023-01-04T06:06:32.073Z,6.11
2023-01-04T06:09:34.813Z,6.26
2023-01-04T06:12:36.150Z,6.22
2023-01-04T06:15:43.023Z,6.34
2023-01-04T06:18:44.741Z,6.48
2023-01-04T06:21:47.483Z,6.37
2023-01-04T06:24:50.532Z,6.33
2023-01-04T06:27:51.843Z,6.31
2023-01-04T06:30:53.854Z,6.38
2023-01-04T06:33:55.261Z,6.18
2023-01-04T06:36:58.115Z,6.31
2023-01-04T06:40:01.096Z,6.31
2023-01-04T06:43:02.558Z,6.38
2023-01-04T06:46:06.269Z,6.42
2023-01-04T06:49:07.614Z,6.53
2023-01-04T06:52:09.817Z,6.43
2023-01-04T06:55:11.185Z,6.46
2023-01-04T06:58:13.822Z,6.48
2023-01-04T07:01:17.204Z,6.69
2023-01-04T07:04:18.591Z,6.53
2023-01-04T07:07:19.985Z,6.59
2023-01-04T07:10:21.911Z,6.74
2023-01-04T07:13:27.318Z,6.74
2023-01-04T07:16:30.913Z,6.64
2023-01-04T07:19:32.391Z,6.74
2023-01-04T07:22:35.791Z,6.84
2023-01-04T07:25:37.103Z,6.67
2023-01-04T07:28:56.770Z,6.72
2023-01-04T07:31:59.043Z,6.68
2023-01-04T07:35:00.363Z,6.85
2023-01-04T07:38:03.914Z,6.72
2023-01-04T07:41:05.460Z,6.80
2023-01-04T07:44:08.275Z,6.86
2023-01-04T07:47:11.797Z,6.99
2023-01-04T07:50:13.106Z,6.96
2023-01-04T07:53:15.724Z,6.91
2023-01-04T07:56:18.993Z,6.87
2023-01-04T07:59:22.050Z,7.12
2023-01-04T08:02:25.712Z,7.01
2023-01-04T08:05:27.337Z,6.93
2023-01-04T08:11:49.955Z,7.07
2023-01-04T08:14:52.536Z,7.05
2023-01-04T08:17:55.446Z,6.93
2023-01-04T08:21:05.213Z,6.93
2023-01-04T08:24:08.637Z,6.96
2023-01-04T08:27:10.370Z,7.05
2023-01-04T08:30:12.044Z,7.14
2023-01-04T08:33:15.823Z,7.24
2023-01-04T08:36:24.382Z,7.17
2023-01-04T08:39:28.800Z,7.25
2023-01-04T08:42:31.780Z,7.22
2023-01-04T08:45:33.807Z,7.27
2023-01-04T08:48:36.479Z,7.34
2023-01-04T08:51:39.370Z,7.43
2023-01-04T08:58:02.908Z,7.49
2023-01-04T09:01:06.339Z,7.40
2023-01-04T09:04:08.523Z,7.44
2023-01-04T09:07:11.474Z,7.42
2023-01-04T09:13:34.950Z,7.37
2023-01-04T09:16:38.716Z,7.63
2023-01-04T09:19:40.791Z,7.69
2023-01-04T09:22:42.353Z,7.43
2023-01-04T09:25:43.929Z,7.45
2023-01-04T09:28:45.334Z,7.64
2023-01-04T09:31:46.774Z,7.79
2023-01-04T09:38:09.693Z,7.74
2023-01-04T09:41:21.660Z,7.64
2023-01-04T09:45:02.942Z,7.87
2023-01-04T09:47:58.760Z,7.76
2023-01-04T09:51:05.754Z,7.85
2023-01-04T09:54:15.295Z,7.70
2023-01-04T09:57:24.787Z,7.94
2023-01-04T10:00:30.375Z,7.78
2023-01-04T10:03:34.842Z,7.85
2023-01-04T10:06:38.726Z,7.90
2023-01-04T10:09:40.446Z,7.90
2023-01-04T10:12:59.504Z,7.79
2023-01-04T10:16:17.298Z,7.85
2023-01-04T10:23:02.778Z,7.76
2023-01-04T10:26:12.066Z,8.19
2023-01-04T10:29:38.539Z,7.99
2023-01-04T10:32:42.217Z,8.06
2023-01-04T10:35:45.037Z,8.10
2023-01-04T10:38:54.822Z,8.18
2023-01-04T10:41:59.926Z,8.28
2023-01-04T10:45:15.580Z,8.25
2023-01-04T10:51:55.722Z,8.16
2023-01-04T10:55:04.385Z,8.19
2023-01-04T10:58:14.899Z,8.26
2023-01-04T11:04:51.394Z,8.27
2023-01-04T11:07:59.338Z,8.16
2023-01-04T11:11:05.396Z,8.36
2023-01-04T11:14:07.043Z,8.37
2023-01-04T11:17:11.330Z,8.35
2023-01-04T11:20:12.845Z,8.22
2023-01-04T11:23:17.108Z,8.38
2023-01-04T11:26:22.663Z,8.39
2023-01-04T11:29:33.080Z,8.41
2023-01-04T11:32:39.985Z,8.43
2023-01-04T11:35:44.679Z,8.49
2023-01-04T11:38:55.057Z,8.50
2023-01-04T11:42:03.416Z,8.52
2023-01-04T11:45:05.958Z,8.57
2023-01-04T11:48:15.033Z,8.48
2023-01-04T11:51:21.269Z,8.49
2023-01-04T11:54:23.092Z,8.73
2023-01-04T11:57:26.551Z,8.67
2023-01-04T12:00:27.929Z,8.62
2023-01-04T12:03:31.857Z,8.72
2023-01-04T12:06:38.306Z,8.77
2023-01-04T12:09:40.877Z,8.82
2023-01-04T12:12:43.599Z,8.75
2023-01-04T12:15:55.798Z,8.64
2023-01-04T12:18:57.716Z,8.78
2023-01-04T12:22:02.096Z,8.80
2023-01-04T12:25:05.818Z,8.99
2023-01-04T12:28:29.599Z,8.84
2023-01-04T12:31:34.115Z,8.79
2023-01-04T12:34:41.765Z,8.85
2023-01-04T12:37:49.887Z,8.75
2023-01-04T12:40:55.442Z,9.02
2023-01-04T12:43:58.698Z,8.80
2023-01-04T12:47:18.026Z,8.82
2023-01-04T12:50:23.778Z,8.89
2023-01-04T12:53:54.383Z,9.02
2023-01-04T12:57:26.329Z,9.05
2023-01-04T13:01:03.897Z,9.10
2023-01-04T13:04:30.536Z,8.97
2023-01-04T13:07:42.870Z,8.93
2023-01-04T13:10:50.310Z,8.92
2023-01-04T13:13:58.795Z,8.82
2023-01-04T13:20:40.189Z,8.98
2023-01-04T13:23:48.176Z,8.93
2023-01-04T13:26:51.772Z,8.93
2023-01-04T13:29:53.191Z,8.89
2023-01-04T13:33:24.982Z,9.02
2023-01-04T13:36:18.231Z,9.07
2023-01-04T13:39:20.149Z,9.05
2023-01-04T13:42:27.082Z,9.07
2023-01-04T13:45:36.972Z,9.03
2023-01-04T13:48:42.292Z,8.97
2023-01-04T13:51:44.376Z,9.01
2023-01-04T13:54:46.977Z,9.28
2023-01-04T13:57:55.453Z,9.22
2023-01-04T14:01:00.972Z,9.13
2023-01-04T14:04:05.526Z,9.13
2023-01-04T14:07:07.813Z,9.21
2023-01-04T14:10:18.624Z,9.25
2023-01-04T14:13:20.506Z,9.18
2023-01-04T14:16:23.120Z,9.15
2023-01-04T14:19:42.427Z,9.28
2023-01-04T14:22:52.681Z,9.12
2023-01-04T14:25:58.221Z,9.14
2023-01-04T14:29:22.578Z,9.23
2023-01-04T14:32:24.559Z,9.21
2023-01-04T14:35:29.115Z,9.23
2023-01-04T14:38:36.018Z,9.33
2023-01-04T14:41:45.081Z,9.37
2023-01-04T14:44:47.196Z,9.45
2023-01-04T14:47:50.385Z,9.60
2023-01-04T14:50:52.040Z,9.51
2023-01-04T14:53:54.790Z,9.38
2023-01-04T14:56:58.319Z,9.41
2023-01-04T14:59:59.648Z,9.43
2023-01-04T15:03:01.451Z,9.41
2023-01-04T15:06:03.723Z,9.62
2023-01-04T15:09:07.297Z,9.57
2023-01-04T15:12:08.639Z,9.41
2023-01-04T15:15:12.724Z,9.51
2023-01-04T15:18:15.744Z,9.61
2023-01-04T15:21:17.098Z,9.54
2023-01-04T15:24:19.507Z,9.52
2023-01-04T15:27:24.370Z,9.55
2023-01-04T15:30:28.623Z,9.46
2023-01-04T15:33:31.376Z,9.52
2023-01-04T15:36:34.364Z,9.59
2023-01-04T15:39:37.118Z,9.62
2023-01-04T15:42:56.917Z,9.61
2023-01-04T15:46:04.190Z,9.78
2023-01-04T15:49:07.363Z,9.62
2023-01-04T15:52:12.039Z,9.74
2023-01-04T15:55:15.586Z,9.80
2023-01-04T15:58:18.415Z,9.79
2023-01-04T16:01:20.714Z,9.88
2023-01-04T16:04:22.404Z,9.86
2023-01-04T16:07:24.814Z,9.92
2023-01-04T16:10:28.767Z,9.65
2023-01-04T16:13:30.676Z,9.69
2023-01-04T16:16:33.365Z,9.62
2023-01-04T16:19:34.757Z,9.81
2023-01-04T16:22:37.478Z,9.80
2023-01-04T16:25:40.726Z,9.97
2023-01-04T16:28:42.386Z,9.90
2023-01-04T16:31:44.716Z,9.90
2023-01-04T16:34:46.318Z,9.80
2023-01-04T16:37:47.756Z,9.89
2023-01-04T16:40:58.401Z,10.05
2023-01-04T16:44:01.496Z,10.02
2023-01-04T16:47:03.120Z,10.00
2023-01-04T16:50:06.377Z,10.00
2023-01-04T16:53:07.964Z,9.89
2023-01-04T16:56:13.279Z,9.86
2023-01-04T16:59:17.958Z,9.89
2023-01-04T17:02:19.490Z,10.08
2023-01-04T17:05:21.190Z,10.04
2023-01-04T17:08:27.168Z,10.14
2023-01-04T17:15:14.857Z,9.99
2023-01-04T17:18:14.470Z,10.23
2023-01-04T17:21:33.222Z,10.34
2023-01-04T17:24:35.376Z,10.53
2023-01-04T17:27:38.808Z,10.39
2023-01-04T17:30:43.423Z,10.68
2023-01-04T17:33:45.127Z,10.62
2023-01-04T17:36:47.768Z,10.59
2023-01-04T17:39:49.291Z,10.57
2023-01-04T17:42:52.946Z,10.62
2023-01-04T17:45:54.492Z,10.52
2023-01-04T17:49:21.675Z,10.41
2023-01-04T17:52:25.941Z,10.42
2023-01-04T17:55:35.188Z,10.42
2023-01-04T17:58:38.017Z,10.43
2023-01-04T18:01:39.774Z,10.46
2023-01-04T18:04:42.531Z,10.66
2023-01-04T18:07:44.229Z,10.50
2023-01-04T18:14:14.059Z,10.64
2023-01-04T18:17:15.913Z,10.58
2023-01-04T18:20:24.716Z,10.66
2023-01-04T18:23:28.675Z,10.84
2023-01-04T18:26:41.616Z,10.68
2023-01-04T18:29:56.727Z,10.71
2023-01-04T18:32:58.337Z,10.78
2023-01-04T18:36:02.805Z,10.92
2023-01-04T18:39:04.369Z,10.71
2023-01-04T18:42:09.025Z,10.97
2023-01-04T18:45:11.429Z,10.96
2023-01-04T18:48:12.738Z,10.95
2023-01-04T18:51:15.030Z,11.04
2023-01-04T18:54:19.926Z,11.07
2023-01-04T18:57:22.436Z,10.83
2023-01-04T19:00:29.313Z,10.85
2023-01-04T19:03:37.329Z,10.89
2023-01-04T19:06:40.949Z,10.91
2023-01-04T19:09:42.931Z,10.91
2023-01-04T19:12:48.686Z,11.10
2023-01-04T19:15:50.782Z,10.92
2023-01-04T19:18:53.310Z,10.93
2023-01-04T19:21:54.587Z,10.97
2023-01-04T19:24:56.054Z,10.83
2023-01-04T19:27:57.357Z,10.79
2023-01-04T19:31:05.644Z,11.03
2023-01-04T19:34:08.656Z,10.96
2023-01-04T19:37:10.011Z,10.91
2023-01-04T19:40:14.137Z,11.09
2023-01-04T19:43:15.458Z,10.90
2023-01-04T19:46:18.294Z,11.15
2023-01-04T19:49:21.134Z,11.11
2023-01-04T19:52:23.573Z,11.06
2023-01-04T19:55:29.131Z,11.03
2023-01-04T19:58:32.444Z,11.18
2023-01-04T20:04:55.577Z,10.95
2023-01-04T20:07:57.309Z,11.02
2023-01-04T20:11:00.033Z,11.06
2023-01-04T20:14:01.211Z,10.99
2023-01-04T20:17:03.203Z,11.14
2023-01-04T20:20:05.312Z,11.01
2023-01-04T20:23:07.210Z,11.04
2023-01-04T20:26:11.802Z,10.92
2023-01-04T20:29:13.168Z,11.00
2023-01-04T20:32:16.347Z,11.05
2023-01-04T20:35:19.209Z,10.95
2023-01-04T20:38:22.125Z,10.88
2023-01-04T20:41:24.407Z,10.81
2023-01-04T20:44:27.230Z,10.87
2023-01-04T20:47:31.613Z,10.78
2023-01-04T20:50:35.152Z,10.82
2023-01-04T20:53:38.679Z,10.88
2023-01-04T20:56:40.486Z,10.90
2023-01-04T20:59:43.571Z,11.06
2023-01-04T21:02:47.154Z,11.16
2023-01-04T21:05:48.557Z,11.23
2023-01-04T21:08:51.807Z,11.17
2023-01-04T21:11:55.750Z,11.06
2023-01-04T21:14:58.609Z,11.18
2023-01-04T21:18:00.781Z,11.22
2023-01-04T21:21:05.105Z,11.19
2023-01-04T21:24:08.307Z,11.13
2023-01-04T21:27:09.648Z,11.15
2023-01-04T21:30:12.205Z,11.07
2023-01-04T21:33:15.893Z,11.23
2023-01-04T21:36:20.702Z,11.25
2023-01-04T21:39:22.091Z,11.13
2023-01-04T21:42:24.633Z,11.12
2023-01-04T21:45:26.135Z,11.21
2023-01-04T21:48:29.405Z,11.05
2023-01-04T21:51:31.321Z,10.91
2023-01-04T21:54:33.859Z,10.98
2023-01-04T21:57:35.779Z,10.90
2023-01-04T22:04:02.166Z,10.78
2023-01-04T22:07:03.508Z,10.77
2023-01-04T22:10:05.488Z,10.83
2023-01-04T22:13:07.287Z,10.78
2023-01-04T22:16:10.651Z,10.71
2023-01-04T22:19:13.875Z,10.72
2023-01-04T22:22:16.428Z,10.69
2023-01-04T22:25:19.021Z,10.79
2023-01-04T22:28:20.353Z,10.76
2023-01-04T22:31:21.793Z,10.78
2023-01-04T22:34:24.648Z,10.67
2023-01-04T22:37:27.218Z,10.52
2023-01-04T22:40:29.758Z,10.47
2023-01-04T22:43:31.020Z,10.60
2023-01-04T22:46:35.071Z,10.57
2023-01-04T22:49:37.072Z,10.43
2023-01-04T22:52:39.653Z,10.50
2023-01-04T22:56:16.994Z,10.41
2023-01-04T22:59:02.260Z,10.55
2023-01-04T23:02:03.856Z,10.57
2023-01-04T23:05:06.639Z,10.53
2023-01-04T23:08:09.203Z,10.68
2023-01-04T23:11:14.248Z,10.57
2023-01-04T23:14:16.741Z,10.46
2023-01-04T23:17:19.288Z,10.49
2023-01-04T23:20:21.251Z,10.48
2023-01-04T23:26:44.338Z,10.49
2023-01-04T23:29:47.212Z,10.46
2023-01-04T23:32:48.526Z,10.47
2023-01-04T23:35:51.701Z,10.47
2023-01-04T23:38:54.958Z,10.40
2023-01-04T23:41:57.678Z,10.51
2023-01-04T23:44:58.995Z,10.30
2023-01-04T23:48:00.312Z,10.43
2023-01-04T23:51:02.367Z,10.41
2023-01-04T23:57:25.386Z,10.65
